createdAt,value
2023-05-13T00:02:08.482Z,100113.16
2023-05-13T00:04:36.221Z,100122.75
2023-05-13T00:07:03.814Z,100120.41
2023-05-13T00:09:31.462Z,100129.16
2023-05-13T00:11:58.980Z,100129.09
2023-05-13T00:14:26.611Z,100131.56
2023-05-13T00:16:54.111Z,100134.75
2023-05-13T00:19:21.657Z,100138.28
2023-05-13T00:21:49.140Z,100137.78
2023-05-13T00:24:16.848Z,100137.09
2023-05-13T00:26:44.384Z,100148.72
2023-05-13T00:29:12.090Z,100146.56
2023-05-13T00:31:39.607Z,100153.22
2023-05-13T00:34:07.257Z,100155.38
2023-05-13T00:36:34.773Z,100151.47
2023-05-13T00:39:02.703Z,100153.94
2023-05-13T00:41:30.442Z,100152.34
2023-05-13T00:43:58.211Z,100146.09
2023-05-13T00:46:26.219Z,100146.84
2023-05-13T00:48:54.202Z,100147.78
2023-05-13T00:51:21.809Z,100151.78
2023-05-13T00:53:51.260Z,100147.38
2023-05-13T00:56:22.574Z,100150.56
2023-05-13T00:58:50.381Z,100146.06
2023-05-13T01:01:52.308Z,100161.22
2023-05-13T01:04:34.241Z,100163.88
2023-05-13T01:07:09.846Z,100171.66
2023-05-13T01:10:09.114Z,100172.31
2023-05-13T01:12:46.336Z,100176.00
2023-05-13T01:15:20.370Z,100172.06
2023-05-13T01:18:06.683Z,100173.34
2023-05-13T01:20:35.616Z,100181.31
2023-05-13T01:23:04.195Z,100179.16
2023-05-13T01:25:31.961Z,100191.78
2023-05-13T01:28:00.218Z,100198.28
2023-05-13T01:30:28.225Z,100184.34
2023-05-13T01:32:56.361Z,100186.38
2023-05-13T01:35:25.323Z,100180.97
2023-05-13T01:37:53.920Z,100177.56
2023-05-13T01:40:31.798Z,100178.16
2023-05-13T01:43:02.872Z,100177.56
2023-05-13T01:45:31.093Z,100178.59
2023-05-13T01:47:59.764Z,100182.88
2023-05-13T01:50:33.848Z,100189.84
2023-05-13T01:53:01.332Z,100187.78
2023-05-13T01:55:28.932Z,100185.69
2023-05-13T01:57:56.604Z,100192.97
2023-05-13T02:00:24.253Z,100192.75
2023-05-13T02:02:51.866Z,100186.88
2023-05-13T02:05:19.436Z,100201.00
2023-05-13T02:07:47.256Z,100197.66
2023-05-13T02:10:14.809Z,100190.88
2023-05-13T02:12:42.410Z,100190.38
2023-05-13T02:15:10.666Z,100191.09
2023-05-13T02:17:38.167Z,100200.78
2023-05-13T02:20:07.227Z,100202.66
2023-05-13T02:22:36.226Z,100200.28
2023-05-13T02:25:05.492Z,100192.53
2023-05-13T02:27:33.064Z,100186.06
2023-05-13T02:30:00.565Z,100188.53
2023-05-13T02:32:28.294Z,100197.56
2023-05-13T02:34:55.863Z,100191.44
2023-05-13T02:37:23.490Z,100184.63
2023-05-13T02:39:59.332Z,100182.84
2023-05-13T02:42:27.256Z,100174.22
2023-05-13T02:44:55.422Z,100182.09
2023-05-13T02:47:24.383Z,100179.16
2023-05-13T02:49:52.084Z,100183.38
2023-05-13T02:52:19.595Z,100184.06
2023-05-13T02:54:47.123Z,100187.25
2023-05-13T02:57:16.429Z,100185.44
2023-05-13T02:59:44.824Z,100183.09
2023-05-13T03:02:12.524Z,100191.38
2023-05-13T03:04:41.371Z,100199.88
2023-05-13T03:07:08.869Z,100212.25
2023-05-13T03:09:39.235Z,100221.69
2023-05-13T03:12:08.452Z,100218.72
2023-05-13T03:14:37.213Z,100231.47
2023-05-13T03:17:05.401Z,100236.66
2023-05-13T03:19:37.964Z,100240.22
2023-05-13T03:22:06.480Z,100244.78
2023-05-13T03:24:34.334Z,100249.06
2023-05-13T03:27:02.898Z,100251.44
2023-05-13T03:29:31.344Z,100253.22
2023-05-13T03:31:59.911Z,100243.28
2023-05-13T03:34:27.506Z,100247.44
2023-05-13T03:36:55.547Z,100244.34
2023-05-13T03:39:23.376Z,100251.34
2023-05-13T03:41:50.939Z,100254.22
2023-05-13T03:44:18.476Z,100249.44
2023-05-13T03:46:45.990Z,100257.47
2023-05-13T03:49:13.772Z,100251.44
2023-05-13T03:51:41.836Z,100258.72
2023-05-13T03:54:10.848Z,100261.44
2023-05-13T03:56:40.441Z,100260.69
2023-05-13T03:59:08.017Z,100263.81
2023-05-13T04:01:36.985Z,100259.72
2023-05-13T04:04:05.791Z,100252.25
2023-05-13T04:06:33.440Z,100251.47
2023-05-13T04:09:02.160Z,100262.31
2023-05-13T04:11:29.663Z,100260.91
2023-05-13T04:13:58.146Z,100264.59
2023-05-13T04:16:25.987Z,100255.06
2023-05-13T04:18:53.599Z,100254.66
2023-05-13T04:21:21.710Z,100250.84
2023-05-13T04:23:49.358Z,100244.06
2023-05-13T04:26:17.900Z,100258.41
2023-05-13T04:28:45.778Z,100258.22
2023-05-13T04:31:13.773Z,100254.13
2023-05-13T04:33:42.504Z,100255.56
2023-05-13T04:36:10.181Z,100267.81
2023-05-13T04:38:38.376Z,100277.38
2023-05-13T04:41:06.494Z,100271.88
2023-05-13T04:43:41.342Z,100267.06
2023-05-13T04:46:08.993Z,100278.88
2023-05-13T04:48:36.635Z,100281.34
2023-05-13T04:51:04.783Z,100286.78
2023-05-13T04:53:32.940Z,100296.34
2023-05-13T04:56:03.418Z,100296.44
2023-05-13T04:58:31.520Z,100300.16
2023-05-13T05:00:59.018Z,100302.81
2023-05-13T05:03:26.688Z,100307.41
2023-05-13T05:05:54.661Z,100318.13
2023-05-13T05:08:24.500Z,100320.34
2023-05-13T05:10:52.225Z,100312.69
2023-05-13T05:13:20.634Z,100319.94
2023-05-13T05:15:48.198Z,100324.50
2023-05-13T05:18:15.902Z,100317.97
2023-05-13T05:20:46.802Z,100324.66
2023-05-13T05:23:17.103Z,100323.53
2023-05-13T05:25:45.192Z,100331.31
2023-05-13T05:28:15.890Z,100333.47
2023-05-13T05:30:44.668Z,100335.38
2023-05-13T05:33:42.588Z,100340.34
2023-05-13T05:36:10.227Z,100341.41
2023-05-13T05:38:37.840Z,100346.13
2023-05-13T05:41:06.778Z,100336.66
2023-05-13T05:43:34.290Z,100333.84
2023-05-13T05:46:01.845Z,100328.88
2023-05-13T05:48:29.317Z,100323.03
2023-05-13T05:50:57.224Z,100320.41
2023-05-13T05:53:32.331Z,100323.84
2023-05-13T05:56:01.410Z,100323.19
2023-05-13T05:58:29.126Z,100325.75
2023-05-13T06:00:58.458Z,100322.50
2023-05-13T06:03:26.805Z,100317.91
2023-05-13T06:05:55.457Z,100315.84
2023-05-13T06:08:29.894Z,100322.50
2023-05-13T06:11:00.967Z,100325.28
2023-05-13T06:13:28.747Z,100328.47
2023-05-13T06:15:56.341Z,100328.34
2023-05-13T06:18:24.046Z,100322.91
2023-05-13T06:20:51.562Z,100326.66
2023-05-13T06:23:19.436Z,100336.50
2023-05-13T06:25:48.138Z,100340.69
2023-05-13T06:28:15.778Z,100337.78
2023-05-13T06:30:44.576Z,100344.63
2023-05-13T06:33:12.772Z,100341.69
2023-05-13T06:35:40.557Z,100336.72
2023-05-13T06:38:10.187Z,100343.19
2023-05-13T06:40:37.776Z,100337.63
2023-05-13T06:43:06.833Z,100333.72
2023-05-13T06:45:38.810Z,100334.25
2023-05-13T06:48:06.829Z,100339.78
2023-05-13T06:50:34.531Z,100332.25
2023-05-13T06:53:02.087Z,100337.22
2023-05-13T06:55:29.706Z,100335.47
2023-05-13T06:57:58.151Z,100337.00
2023-05-13T07:00:28.525Z,100336.84
2023-05-13T07:02:56.124Z,100338.19
2023-05-13T07:05:24.295Z,100331.03
2023-05-13T07:07:53.758Z,100344.06
2023-05-13T07:10:21.421Z,100335.16
2023-05-13T07:12:49.044Z,100335.25
2023-05-13T07:15:19.941Z,100345.81
2023-05-13T07:17:47.622Z,100329.66
2023-05-13T07:20:15.415Z,100337.34
2023-05-13T07:22:42.883Z,100327.97
2023-05-13T07:25:10.860Z,100334.63
2023-05-13T07:27:38.713Z,100333.97
2023-05-13T07:30:07.393Z,100329.81
2023-05-13T07:32:37.044Z,100329.06
2023-05-13T07:35:05.904Z,100328.16
2023-05-13T07:37:33.450Z,100325.78
2023-05-13T07:40:01.547Z,100318.84
2023-05-13T07:42:30.375Z,100322.22
2023-05-13T07:44:57.891Z,100320.44
2023-05-13T07:47:25.514Z,100314.16
2023-05-13T07:49:53.127Z,100308.94
2023-05-13T07:52:20.788Z,100307.28
2023-05-13T07:54:49.053Z,100303.19
2023-05-13T07:57:16.788Z,100304.84
2023-05-13T07:59:44.855Z,100301.09
2023-05-13T08:02:13.129Z,100304.25
2023-05-13T08:04:40.722Z,100303.94
2023-05-13T08:07:11.782Z,100294.25
2023-05-13T08:09:39.461Z,100298.56
2023-05-13T08:12:07.335Z,100301.59
2023-05-13T08:14:34.870Z,100292.47
2023-05-13T08:17:04.359Z,100295.28
2023-05-13T08:19:31.785Z,100295.38
2023-05-13T08:22:01.818Z,100304.53
2023-05-13T08:24:29.310Z,100303.00
2023-05-13T08:26:56.773Z,100302.91
2023-05-13T08:29:24.565Z,100303.38
2023-05-13T08:31:53.756Z,100301.75
2023-05-13T08:34:21.361Z,100307.06
2023-05-13T08:36:48.864Z,100314.72
2023-05-13T08:39:16.432Z,100315.94
2023-05-13T08:41:45.773Z,100307.94
2023-05-13T08:44:13.778Z,100300.63
2023-05-13T08:46:47.121Z,100297.44
2023-05-13T08:49:14.647Z,100299.50
2023-05-13T08:51:44.292Z,100295.16
2023-05-13T08:54:12.766Z,100296.09
2023-05-13T08:56:40.365Z,100300.72
2023-05-13T08:59:08.109Z,100301.16
2023-05-13T09:01:35.720Z,100303.81
2023-05-13T09:04:08.896Z,100297.66
2023-05-13T09:06:36.330Z,100298.34
2023-05-13T09:09:06.077Z,100285.72
2023-05-13T09:11:34.060Z,100281.13
2023-05-13T09:14:05.704Z,100282.44
2023-05-13T09:16:33.881Z,100275.22
2023-05-13T09:19:04.980Z,100270.91
2023-05-13T09:21:38.265Z,100275.66
2023-05-13T09:24:21.557Z,100281.34
2023-05-13T09:26:51.331Z,100280.81
2023-05-13T09:29:25.417Z,100273.78
2023-05-13T09:31:55.897Z,100277.16
2023-05-13T09:34:32.855Z,100276.81
2023-05-13T09:37:03.640Z,100267.97
2023-05-13T09:39:34.188Z,100268.06
2023-05-13T09:42:04.830Z,100268.56
2023-05-13T09:44:34.199Z,100273.81
2023-05-13T09:47:03.026Z,100273.84
2023-05-13T09:49:33.663Z,100273.78
2023-05-13T09:52:01.227Z,100268.78
2023-05-13T09:54:36.155Z,100271.59
2023-05-13T09:57:06.346Z,100271.03
2023-05-13T09:59:35.570Z,100281.78
2023-05-13T10:02:28.300Z,100274.72
2023-05-13T10:04:57.140Z,100285.63
2023-05-13T10:07:25.923Z,100276.66
2023-05-13T10:09:58.092Z,100279.53
2023-05-13T10:12:27.783Z,100273.53
2023-05-13T10:14:56.982Z,100266.97
2023-05-13T10:17:26.297Z,100264.06
2023-05-13T10:19:55.372Z,100257.28
2023-05-13T10:22:34.885Z,100253.00
2023-05-13T10:25:05.238Z,100251.59
2023-05-13T10:27:34.602Z,100245.16
2023-05-13T10:30:09.645Z,100236.00
2023-05-13T10:32:42.642Z,100241.50
2023-05-13T10:35:17.104Z,100246.25
2023-05-13T10:38:21.464Z,100246.66
2023-05-13T10:41:26.851Z,100238.31
2023-05-13T10:43:59.663Z,100240.44
2023-05-13T10:46:27.491Z,100240.78
2023-05-13T10:49:01.101Z,100237.69
2023-05-13T10:51:28.905Z,100223.63
2023-05-13T10:53:59.170Z,100230.19
2023-05-13T10:56:29.157Z,100221.53
2023-05-13T10:59:02.536Z,100212.25
2023-05-13T11:01:35.645Z,100213.03
2023-05-13T11:04:05.641Z,100211.28
2023-05-13T11:06:39.535Z,100223.13
2023-05-13T11:09:12.912Z,100225.31
2023-05-13T11:11:41.010Z,100226.56
2023-05-13T11:14:19.888Z,100231.28
2023-05-13T11:17:02.771Z,100216.34
2023-05-13T11:19:33.473Z,100214.44
2023-05-13T11:22:12.263Z,100214.00
2023-05-13T11:24:40.607Z,100206.63
2023-05-13T11:27:17.289Z,100212.41
2023-05-13T11:29:56.301Z,100210.63
2023-05-13T11:32:58.661Z,100210.19
2023-05-13T11:35:33.699Z,100210.25
2023-05-13T11:38:06.439Z,100216.28
2023-05-13T11:40:37.088Z,100220.13
2023-05-13T11:43:05.811Z,100218.63
2023-05-13T11:45:40.297Z,100216.00
2023-05-13T11:48:26.354Z,100215.53
2023-05-13T11:50:58.161Z,100213.94
2023-05-13T11:53:25.780Z,100216.38
2023-05-13T11:55:53.267Z,100204.31
2023-05-13T11:58:22.052Z,100203.47
2023-05-13T12:00:49.646Z,100207.13
2023-05-13T12:03:19.873Z,100189.56
2023-05-13T12:05:49.558Z,100189.97
2023-05-13T12:08:17.068Z,100200.38
2023-05-13T12:10:45.805Z,100198.81
2023-05-13T12:13:13.908Z,100195.00
2023-05-13T12:15:42.817Z,100189.16
2023-05-13T12:18:10.545Z,100184.53
2023-05-13T12:20:38.884Z,100187.66
2023-05-13T12:23:06.772Z,100183.47
2023-05-13T12:25:48.260Z,100176.22
2023-05-13T12:28:19.423Z,100174.31
2023-05-13T12:30:59.682Z,100168.91
2023-05-13T12:33:29.878Z,100161.63
2023-05-13T12:36:16.702Z,100158.53
2023-05-13T12:39:03.011Z,100159.63
2023-05-13T12:41:36.138Z,100153.84
2023-05-13T12:44:07.891Z,100150.72
2023-05-13T12:46:36.042Z,100154.97
2023-05-13T12:49:06.573Z,100152.31
2023-05-13T12:51:34.330Z,100147.66
2023-05-13T12:54:02.183Z,100153.16
2023-05-13T12:56:29.735Z,100141.25
2023-05-13T12:59:00.488Z,100140.53
2023-05-13T13:01:28.172Z,100142.47
2023-05-13T13:03:55.853Z,100141.28
2023-05-13T13:06:23.685Z,100135.84
2023-05-13T13:08:51.626Z,100127.38
2023-05-13T13:11:19.235Z,100130.31
2023-05-13T13:13:48.421Z,100133.31
2023-05-13T13:16:17.232Z,100136.44
2023-05-13T13:18:47.495Z,100130.28
2023-05-13T13:21:14.986Z,100132.53
2023-05-13T13:23:42.410Z,100129.72
2023-05-13T13:26:09.892Z,100129.41
2023-05-13T13:28:37.332Z,100136.56
2023-05-13T13:31:05.183Z,100130.50
2023-05-13T13:33:32.677Z,100144.56
2023-05-13T13:36:00.388Z,100138.63
2023-05-13T13:38:27.917Z,100134.91
2023-05-13T13:40:55.532Z,100131.84
2023-05-13T13:43:23.493Z,100136.97
2023-05-13T13:45:51.080Z,100127.59
2023-05-13T13:48:18.570Z,100117.44
2023-05-13T13:50:47.585Z,100116.31
2023-05-13T13:53:15.965Z,100113.31
2023-05-13T13:55:43.401Z,100108.38
2023-05-13T13:58:10.896Z,100114.53
2023-05-13T14:00:39.088Z,100125.25
2023-05-13T14:03:06.739Z,100117.19
2023-05-13T14:05:34.226Z,100116.03
2023-05-13T14:08:01.732Z,100119.88
2023-05-13T14:10:29.351Z,100120.63
2023-05-13T14:12:57.924Z,100113.38
2023-05-13T14:15:28.761Z,100113.75
2023-05-13T14:17:57.019Z,100108.00
2023-05-13T14:20:25.405Z,100114.53
2023-05-13T14:22:52.873Z,100108.00
2023-05-13T14:25:20.306Z,100110.69
2023-05-13T14:27:47.744Z,100111.44
2023-05-13T14:30:15.311Z,100109.91
2023-05-13T14:32:47.326Z,100107.25
2023-05-13T14:35:16.529Z,100102.25
2023-05-13T14:37:46.615Z,100103.38
2023-05-13T14:40:14.232Z,100101.47
2023-05-13T14:42:41.819Z,100099.19
2023-05-13T14:45:13.486Z,100100.38
2023-05-13T14:47:42.849Z,100102.63
2023-05-13T14:50:12.324Z,100096.13
2023-05-13T14:52:39.811Z,100098.81
2023-05-13T14:55:07.698Z,100095.72
2023-05-13T14:57:35.445Z,100099.13
2023-05-13T15:00:04.211Z,100095.72
2023-05-13T15:02:31.957Z,100094.97
2023-05-13T15:04:59.641Z,100102.25
2023-05-13T15:07:27.140Z,100104.91
2023-05-13T15:09:55.612Z,100108.72
2023-05-13T15:12:23.175Z,100110.63
2023-05-13T15:14:54.570Z,100122.13
2023-05-13T15:17:22.595Z,100108.66
2023-05-13T15:19:50.376Z,100103.63
2023-05-13T15:22:18.665Z,100105.25
2023-05-13T15:24:48.557Z,100108.34
2023-05-13T15:27:17.187Z,100108.00
2023-05-13T15:29:44.587Z,100113.00
2023-05-13T15:32:12.138Z,100109.91
2023-05-13T15:34:42.812Z,100107.63
2023-05-13T15:37:10.398Z,100106.88
2023-05-13T15:39:37.952Z,100098.78
2023-05-13T15:42:05.759Z,100100.56
2023-05-13T15:44:33.556Z,100100.97
2023-05-13T15:47:02.050Z,100102.09
2023-05-13T15:49:30.181Z,100105.97
2023-05-13T15:51:57.858Z,100099.75
2023-05-13T15:54:25.359Z,100104.00
2023-05-13T15:56:53.021Z,100108.06
2023-05-13T15:59:20.677Z,100100.16
2023-05-13T16:01:48.209Z,100103.16
2023-05-13T16:04:16.289Z,100103.75
2023-05-13T16:06:44.517Z,100094.13
2023-05-13T16:09:12.010Z,100100.41
2023-05-13T16:11:39.481Z,100096.75
2023-05-13T16:14:08.772Z,100095.34
2023-05-13T16:16:36.374Z,100095.97
2023-05-13T16:19:04.104Z,100100.97
2023-05-13T16:21:32.340Z,100097.97
2023-05-13T16:23:59.843Z,100113.25
2023-05-13T16:26:27.837Z,100110.19
2023-05-13T16:28:55.664Z,100102.47
2023-05-13T16:31:23.159Z,100102.31
2023-05-13T16:33:51.656Z,100102.50
2023-05-13T16:36:19.165Z,100103.00
2023-05-13T16:38:47.427Z,100102.06
2023-05-13T16:41:15.141Z,100102.63
2023-05-13T16:43:44.039Z,100102.50
2023-05-13T16:46:11.662Z,100104.00
2023-05-13T16:48:39.294Z,100100.47
2023-05-13T16:51:06.740Z,100097.38
2023-05-13T16:53:36.564Z,100088.97
2023-05-13T16:56:04.184Z,100086.22
2023-05-13T16:58:33.418Z,100097.53
2023-05-13T17:01:09.069Z,100094.78
2023-05-13T17:03:39.577Z,100102.69
2023-05-13T17:06:10.489Z,100112.56
2023-05-13T17:08:39.080Z,100113.75
2023-05-13T17:11:07.350Z,100117.34
2023-05-13T17:13:34.817Z,100118.69
2023-05-13T17:16:02.311Z,100108.94
2023-05-13T17:18:30.065Z,100116.56
2023-05-13T17:20:57.648Z,100110.91
2023-05-13T17:23:26.160Z,100116.88
2023-05-13T17:25:53.681Z,100117.84
2023-05-13T17:28:21.229Z,100113.44
2023-05-13T17:30:50.225Z,100115.03
2023-05-13T17:33:21.781Z,100109.06
2023-05-13T17:35:51.136Z,100118.06
2023-05-13T17:38:18.996Z,100114.47
2023-05-13T17:40:46.614Z,100111.31
2023-05-13T17:43:14.071Z,100110.22
2023-05-13T17:45:42.667Z,100111.44
2023-05-13T17:48:10.236Z,100114.41
2023-05-13T17:50:38.364Z,100110.56
2023-05-13T17:53:07.952Z,100127.25
2023-05-13T17:55:35.928Z,100134.34
2023-05-13T17:58:04.535Z,100141.72
2023-05-13T18:00:41.652Z,100138.09
2023-05-13T18:03:14.524Z,100147.44
2023-05-13T18:05:43.066Z,100159.88
2023-05-13T18:08:12.102Z,100154.69
2023-05-13T18:10:39.625Z,100148.09
2023-05-13T18:13:09.822Z,100156.22
2023-05-13T18:15:48.800Z,100155.28
2023-05-13T18:18:19.647Z,100151.78
2023-05-13T18:20:47.636Z,100161.06
2023-05-13T18:23:16.493Z,100166.56
2023-05-13T18:25:55.087Z,100168.25
2023-05-13T18:28:23.786Z,100165.72
2023-05-13T18:30:52.192Z,100149.34
2023-05-13T18:33:23.825Z,100155.00
2023-05-13T18:35:54.163Z,100151.81
2023-05-13T18:38:22.943Z,100147.38
2023-05-13T18:40:51.498Z,100138.44
2023-05-13T18:43:19.379Z,100142.00
2023-05-13T18:45:50.018Z,100145.66
2023-05-13T18:48:21.412Z,100134.88
2023-05-13T18:50:49.327Z,100142.25
2023-05-13T18:53:17.855Z,100140.69
2023-05-13T18:55:46.552Z,100136.28
2023-05-13T18:58:20.056Z,100141.81
2023-05-13T19:00:49.401Z,100141.25
2023-05-13T19:03:19.070Z,100137.97
2023-05-13T19:05:47.248Z,100123.06
2023-05-13T19:08:15.679Z,100136.22
2023-05-13T19:10:44.225Z,100128.44
2023-05-13T19:13:13.972Z,100134.38
2023-05-13T19:15:44.669Z,100140.22
2023-05-13T19:18:12.243Z,100136.81
2023-05-13T19:20:42.061Z,100127.53
2023-05-13T19:23:09.982Z,100131.72
2023-05-13T19:25:44.849Z,100124.22
2023-05-13T19:28:13.991Z,100120.44
2023-05-13T19:30:44.008Z,100126.94
2023-05-13T19:33:11.736Z,100128.03
2023-05-13T19:35:44.641Z,100131.22
2023-05-13T19:38:14.705Z,100128.25
2023-05-13T19:40:47.288Z,100125.69
2023-05-13T19:43:15.340Z,100118.84
2023-05-13T19:45:43.319Z,100124.03
2023-05-13T19:48:10.843Z,100123.25
2023-05-13T19:50:39.815Z,100121.03
2023-05-13T19:53:11.417Z,100122.75
2023-05-13T19:55:39.293Z,100131.66
2023-05-13T19:58:07.368Z,100132.63
2023-05-13T20:00:34.937Z,100137.25
2023-05-13T20:03:02.474Z,100147.09
2023-05-13T20:05:30.041Z,100152.69
2023-05-13T20:07:57.513Z,100154.28
2023-05-13T20:10:25.200Z,100156.78
2023-05-13T20:12:54.052Z,100167.88
2023-05-13T20:15:22.166Z,100160.84
2023-05-13T20:17:49.897Z,100160.06
2023-05-13T20:20:17.650Z,100165.25
2023-05-13T20:22:45.141Z,100162.72
2023-05-13T20:25:15.527Z,100165.50
2023-05-13T20:27:43.149Z,100162.47
2023-05-13T20:30:14.191Z,100161.38
2023-05-13T20:32:43.248Z,100159.81
2023-05-13T20:35:10.956Z,100159.97
2023-05-13T20:37:38.461Z,100163.25
2023-05-13T20:40:07.451Z,100163.75
2023-05-13T20:42:34.973Z,100158.84
2023-05-13T20:45:02.644Z,100158.78
2023-05-13T20:47:35.424Z,100160.19
2023-05-13T20:50:03.393Z,100160.59
2023-05-13T20:52:32.155Z,100166.69
2023-05-13T20:54:59.974Z,100165.44
2023-05-13T20:57:27.560Z,100159.19
2023-05-13T20:59:55.912Z,100152.22
2023-05-13T21:02:23.469Z,100158.22
2023-05-13T21:05:03.066Z,100152.66
2023-05-13T21:07:34.505Z,100144.91
2023-05-13T21:10:04.246Z,100152.88
2023-05-13T21:12:34.733Z,100154.59
2023-05-13T21:15:03.693Z,100165.00
2023-05-13T21:17:37.950Z,100160.81
2023-05-13T21:20:26.605Z,100172.16
2023-05-13T21:22:58.244Z,100168.28
2023-05-13T21:25:27.430Z,100164.75
2023-05-13T21:27:54.991Z,100151.63
2023-05-13T21:30:23.345Z,100158.69
2023-05-13T21:32:51.070Z,100163.16
2023-05-13T21:35:19.412Z,100162.81
2023-05-13T21:37:47.544Z,100172.81
2023-05-13T21:40:16.136Z,100168.47
2023-05-13T21:42:45.363Z,100171.59
2023-05-13T21:45:15.175Z,100178.63
2023-05-13T21:47:42.739Z,100183.97
2023-05-13T21:50:11.559Z,100180.69
2023-05-13T21:52:42.190Z,100191.53
2023-05-13T21:55:10.266Z,100187.59
2023-05-13T21:57:37.755Z,100191.84
2023-05-13T22:00:10.662Z,100197.53
2023-05-13T22:02:44.018Z,100196.13
2023-05-13T22:05:12.094Z,100193.91
2023-05-13T22:07:39.710Z,100190.41
2023-05-13T22:10:08.249Z,100190.41
2023-05-13T22:12:36.101Z,100188.94
2023-05-13T22:15:03.699Z,100188.03
2023-05-13T22:17:31.197Z,100190.19
2023-05-13T22:19:58.819Z,100190.19
2023-05-13T22:22:26.415Z,100189.53
2023-05-13T22:24:53.763Z,100191.84
2023-05-13T22:27:21.414Z,100196.91
2023-05-13T22:29:48.934Z,100188.69
2023-05-13T22:32:16.589Z,100194.28
2023-05-13T22:34:44.274Z,100194.50
2023-05-13T22:37:11.731Z,100193.09
2023-05-13T22:39:39.153Z,100188.81
2023-05-13T22:42:07.021Z,100180.94
2023-05-13T22:44:35.050Z,100184.09
2023-05-13T22:47:02.506Z,100177.53
2023-05-13T22:49:29.924Z,100170.75
2023-05-13T22:51:57.466Z,100173.28
2023-05-13T22:54:24.949Z,100173.13
2023-05-13T22:56:52.733Z,100182.81
2023-05-13T22:59:20.211Z,100172.31
2023-05-13T23:01:47.734Z,100180.59
2023-05-13T23:04:15.222Z,100180.63
2023-05-13T23:06:42.732Z,100183.09
2023-05-13T23:09:10.379Z,100176.25
2023-05-13T23:11:37.873Z,100181.19
2023-05-13T23:14:05.469Z,100181.38
2023-05-13T23:16:32.979Z,100182.78
2023-05-13T23:19:00.536Z,100180.47
2023-05-13T23:21:28.277Z,100175.56
2023-05-13T23:23:55.742Z,100183.00
2023-05-13T23:26:24.850Z,100181.31
2023-05-13T23:28:52.370Z,100188.16
2023-05-13T23:31:19.888Z,100189.13
2023-05-13T23:33:47.457Z,100190.13
2023-05-13T23:36:17.117Z,100181.94
2023-05-13T23:38:44.601Z,100179.31
2023-05-13T23:41:11.995Z,100168.78
2023-05-13T23:43:39.464Z,100175.94
2023-05-13T23:46:07.019Z,100171.75
2023-05-13T23:48:34.429Z,100177.31
2023-05-13T23:51:02.088Z,100175.72
2023-05-13T23:53:29.559Z,100178.16
2023-05-13T23:55:57.510Z,100178.84
2023-05-13T23:58:25.109Z,100174.53
